Time;durP1;ratioP1;P1;durP2;ratioP2;P2;SDS_P1;SDS_P2;PMS_P1;PMS_P2;Temp;Humidity;BMP_temperature;BMP_pressure;BME280_temperature;BME280_humidity;BME280_pressure;Samples;Min_cycle;Max_cycle;Signal;HPM_P1;HPM_P2
2020/12/04 06:32:27;;;;;;;11.40;1.55;;;12.90;99.90;;;;;;5777328;24;21107;31
2020/12/04 06:34:53;;;;;;;3.63;1.10;;;12.90;99.90;;;;;;4760388;30;20053;-83
2020/12/04 06:37:34;;;;;;;8.48;1.60;;;12.90;99.90;;;;;;4764378;30;20077;-82
2020/12/04 06:40:30;;;;;;;2.03;0.90;;;13.00;99.90;;;;;;4773654;30;20035;-84
2020/12/04 06:43:01;;;;;;;6.97;2.00;;;13.00;99.90;;;;;;4753872;30;20101;-83
2020/12/04 06:45:48;;;;;;;8.05;1.95;;;13.00;99.90;;;;;;4768294;30;20028;-84
2020/12/04 06:48:17;;;;;;;8.88;1.25;;;13.00;99.90;;;;;;4736878;30;20079;-83
2020/12/04 06:50:50;;;;;;;11.65;2.30;;;13.00;99.90;;;;;;4765718;30;20048;-84
2020/12/04 06:53:16;;;;;;;2.47;1.08;;;13.00;99.90;;;;;;4765791;30;20498;-83
2020/12/04 06:55:44;;;;;;;10.90;1.30;;;13.10;99.90;;;;;;4765773;30;20392;-83
2020/12/04 06:58:10;;;;;;;6.57;1.08;;;13.10;99.90;;;;;;4754831;30;20043;-83
2020/12/04 07:00:36;;;;;;;8.88;2.45;;;13.10;99.90;;;;;;4768300;30;20502;-83
2020/12/04 07:03:04;;;;;;;6.53;1.85;;;13.10;99.90;;;;;;4768366;30;20032;-83
2020/12/04 07:05:32;;;;;;;6.22;1.88;;;13.10;99.90;;;;;;4768213;30;20035;-83
2020/12/04 07:08:07;;;;;;;9.65;1.42;;;13.10;99.90;;;;;;4782692;29;20058;-83
2020/12/04 07:10:35;;;;;;;6.03;1.55;;;13.10;99.90;;;;;;4750346;30;20029;-82
2020/12/04 07:13:03;;;;;;;8.13;1.88;;;13.10;99.90;;;;;;4750421;30;20047;-83
2020/12/04 07:15:29;;;;;;;6.68;1.70;;;13.10;99.90;;;;;;4750291;30;20040;-84
2020/12/04 07:17:59;;;;;;;3.70;1.98;;;13.10;99.90;;;;;;4750342;30;20392;-83
2020/12/04 07:20:33;;;;;;;9.80;2.58;;;13.10;99.90;;;;;;4747326;30;20045;-83
2020/12/04 07:22:59;;;;;;;6.90;2.03;;;13.10;99.90;;;;;;4759223;30;20092;-82
2020/12/04 07:25:26;;;;;;;8.05;2.53;;;13.10;99.90;;;;;;4749994;30;20028;-83
2020/12/04 07:27:53;;;;;;;9.43;2.35;;;13.10;99.90;;;;;;4749885;30;20121;-84
2020/12/04 07:30:21;;;;;;;7.85;2.33;;;13.20;99.90;;;;;;4763545;30;20479;-83
2020/12/04 07:32:52;;;;;;;12.07;2.50;;;13.20;99.90;;;;;;4767845;30;20083;-84
2020/12/04 07:35:19;;;;;;;10.10;2.00;;;13.30;99.90;;;;;;4769626;30;20054;-84
2020/12/04 07:37:46;;;;;;;6.03;0.82;;;13.10;99.90;;;;;;4767969;30;20040;-84
2020/12/04 07:40:14;;;;;;;4.95;0.82;;;12.80;99.90;;;;;;4756334;30;20047;-83
2020/12/04 07:42:40;;;;;;;4.82;1.00;;;12.70;99.90;;;;;;4779236;30;20461;-83
2020/12/04 07:45:06;;;;;;;2.90;0.82;;;12.50;99.90;;;;;;4782432;30;20397;-81
2020/12/04 07:47:33;;;;;;;10.70;1.75;;;12.50;99.90;;;;;;4767956;30;20474;-84
2020/12/04 07:50:01;;;;;;;11.70;1.67;;;12.40;99.90;;;;;;4767146;30;20032;-82
2020/12/04 07:52:33;;;;;;;11.57;2.22;;;12.40;99.90;;;;;;4753623;30;20127;-80
2020/12/04 07:55:10;;;;;;;9.43;1.38;;;12.30;99.90;;;;;;4746641;30;20033;-77
2020/12/04 07:57:45;;;;;;;8.05;1.52;;;12.30;99.90;;;;;;4733200;30;20064;-82
2020/12/04 08:00:15;;;;;;;6.20;1.00;;;12.40;99.90;;;;;;4732287;30;20547;-83
2020/12/04 08:02:41;;;;;;;5.60;1.77;;;12.30;99.90;;;;;;4767820;30;20548;-83
2020/12/04 08:05:07;;;;;;;3.25;1.10;;;12.30;99.90;;;;;;4761336;30;20507;-84
2020/12/04 09:28:20;;;;;;;9.38;1.08;;;13.00;99.90;;;;;;4768578;30;20117;-84
2020/12/04 09:30:46;;;;;;;5.00;1.42;;;12.80;99.90;;;;;;4747624;30;20032;-78
2020/12/04 09:36:54;;;;;;;9.15;1.15;;;12.80;99.90;;;;;;4756370;30;20146;-89
2020/12/04 09:39:20;;;;;;;6.45;1.40;;;12.70;99.90;;;;;;4751088;30;20075;-75
2020/12/04 09:41:46;;;;;;;4.50;1.40;;;12.60;99.90;;;;;;4759199;30;20498;-74
2020/12/04 09:50:49;;;;;;;6.03;1.30;;;12.70;99.90;;;;;;4781231;29;20092;-75
2020/12/04 09:53:15;;;;;;;8.45;1.90;;;12.70;99.90;;;;;;4768470;30;20046;-75
2020/12/04 09:55:41;;;;;;;7.15;1.77;;;12.70;99.90;;;;;;4781826;30;20032;-76
2020/12/04 09:58:08;;;;;;;6.75;1.88;;;12.70;99.90;;;;;;4772835;29;20126;-74
2020/12/04 10:00:35;;;;;;;9.88;1.65;;;12.80;99.90;;;;;;4771285;29;20425;-75
2020/12/04 10:03:02;;;;;;;1.95;1.13;;;12.70;99.90;;;;;;4775245;30;20065;-74
2020/12/04 10:05:28;;;;;;;4.43;1.25;;;12.70;99.90;;;;;;4782169;30;20410;-75
2020/12/04 10:07:54;;;;;;;6.25;1.33;;;12.70;99.90;;;;;;4781442;30;20027;-74
2020/12/04 10:10:20;;;;;;;6.53;1.40;;;12.70;99.90;;;;;;4777067;30;20068;-74
2020/12/04 10:12:46;;;;;;;2.65;0.80;;;12.70;99.90;;;;;;4770006;30;20095;-74
2020/12/04 10:15:12;;;;;;;2.28;0.93;;;12.70;99.90;;;;;;4783967;30;20173;-74
2020/12/04 10:17:38;;;;;;;2.50;0.80;;;12.80;99.90;;;;;;4778285;30;20118;-75
2020/12/04 10:20:04;;;;;;;2.88;0.90;;;12.80;99.90;;;;;;4766200;30;20027;-74
2020/12/04 10:22:30;;;;;;;3.88;1.13;;;12.80;99.90;;;;;;4766055;30;20102;-74
2020/12/04 10:24:57;;;;;;;3.50;1.40;;;12.80;99.90;;;;;;4766027;30;20032;-74
2020/12/04 10:27:23;;;;;;;3.80;1.20;;;12.90;99.90;;;;;;4766077;30;20040;-74
2020/12/04 10:29:49;;;;;;;3.45;1.63;;;13.10;99.90;;;;;;4765804;30;20523;-74
2020/12/04 10:32:16;;;;;;;3.15;1.00;;;13.20;99.90;;;;;;4765859;30;20048;-74
2020/12/04 10:34:42;;;;;;;5.13;1.38;;;13.30;99.90;;;;;;4765916;30;20032;-75
2020/12/04 10:37:08;;;;;;;4.72;1.20;;;13.20;99.90;;;;;;4766097;30;20139;-74
2020/12/04 10:39:34;;;;;;;1.55;0.63;;;13.20;99.90;;;;;;4773280;30;20070;-74
2020/12/04 10:42:02;;;;;;;4.97;0.70;;;13.30;99.90;;;;;;4763570;30;20043;-74
2020/12/04 10:44:32;;;;;;;0.65;0.40;;;13.30;99.90;;;;;;4753032;30;20129;-75
2020/12/04 10:46:59;;;;;;;0.28;0.28;;;13.30;99.90;;;;;;4773572;30;20059;-84
2020/12/04 10:49:26;;;;;;;1.10;0.38;;;13.30;99.90;;;;;;4765185;30;20368;-74
2020/12/04 10:51:58;;;;;;;0.52;0.30;;;13.30;99.90;;;;;;4765186;30;20105;-74
2020/12/04 10:54:24;;;;;;;1.00;0.35;;;13.30;99.90;;;;;;4765450;30;20071;-74
2020/12/04 10:56:54;;;;;;;2.60;0.40;;;13.30;99.90;;;;;;4765546;30;20047;-74
2020/12/04 10:59:21;;;;;;;0.70;0.40;;;13.20;99.90;;;;;;4778591;30;20042;-76
2020/12/04 11:01:55;;;;;;;2.17;0.50;;;13.30;99.90;;;;;;4765590;30;20445;-74
2020/12/04 11:07:06;;;;;;;1.73;0.60;;;13.40;99.90;;;;;;4765379;30;20036;-74
2020/12/04 11:09:32;;;;;;;1.95;0.77;;;13.40;99.90;;;;;;4765324;30;20032;-74
2020/12/04 11:11:58;;;;;;;1.25;0.50;;;13.50;99.90;;;;;;4764928;30;20075;-75
2020/12/04 11:14:24;;;;;;;2.10;0.50;;;13.60;99.90;;;;;;4765158;30;20043;-75
2020/12/04 11:16:50;;;;;;;3.50;1.15;;;13.70;99.90;;;;;;4765142;30;20039;-74
2020/12/04 11:19:30;;;;;;;2.88;0.70;;;13.80;99.90;;;;;;4762096;30;20042;-73
2020/12/04 11:22:14;;;;;;;0.88;0.70;;;13.80;99.90;;;;;;4782697;29;20146;-73
2020/12/04 11:24:46;;;;;;;1.67;0.85;;;13.80;99.90;;;;;;4781811;29;20054;-74
2020/12/04 11:27:13;;;;;;;1.42;0.80;;;13.70;99.90;;;;;;4784800;30;20050;-74
2020/12/04 11:29:39;;;;;;;6.10;1.13;;;13.70;99.90;;;;;;4773847;29;20441;-79
2020/12/04 11:32:05;;;;;;;2.17;1.10;;;13.70;99.90;;;;;;4768666;30;20108;-73
2020/12/04 11:34:32;;;;;;;1.77;0.90;;;13.60;99.90;;;;;;4768165;30;20032;-73
2020/12/04 11:36:58;;;;;;;1.15;0.98;;;13.70;99.90;;;;;;4770401;30;20120;-73
2020/12/04 11:39:24;;;;;;;1.38;1.05;;;13.60;99.90;;;;;;4778092;29;20032;-74
2020/12/04 11:41:51;;;;;;;1.10;0.80;;;13.60;99.90;;;;;;4768021;30;20460;-74
2020/12/04 11:44:18;;;;;;;1.73;0.73;;;13.50;99.90;;;;;;4775962;30;20093;-73
2020/12/04 11:46:44;;;;;;;1.17;0.73;;;13.50;99.90;;;;;;4767838;30;20056;-71
2020/12/04 11:49:10;;;;;;;1.30;0.95;;;13.50;99.90;;;;;;4767643;30;20343;-71
2020/12/04 11:51:37;;;;;;;1.30;0.63;;;13.50;99.90;;;;;;4768204;30;20395;-72
2020/12/04 11:54:03;;;;;;;2.28;1.00;;;13.50;99.90;;;;;;4768020;30;20507;-72
2020/12/04 11:56:29;;;;;;;1.73;1.10;;;13.50;99.90;;;;;;4773064;30;20230;-71
2020/12/04 11:58:55;;;;;;;1.92;0.93;;;13.40;99.90;;;;;;4775351;30;20088;-72
2020/12/04 12:01:24;;;;;;;2.25;0.80;;;13.40;99.90;;;;;;4776325;30;20951;-73
2020/12/04 12:03:50;;;;;;;2.17;0.82;;;13.40;99.90;;;;;;4774592;30;20036;-73
2020/12/04 12:06:16;;;;;;;0.82;0.57;;;13.00;99.90;;;;;;4767128;30;20028;-73
2020/12/04 12:08:42;;;;;;;1.13;0.90;;;13.00;99.90;;;;;;4771148;30;20035;-74
2020/12/04 12:11:08;;;;;;;1.45;1.20;;;12.80;99.90;;;;;;4775589;30;20039;-73
2020/12/04 12:13:34;;;;;;;1.20;1.10;;;12.80;99.90;;;;;;4757286;30;20131;-73
2020/12/04 12:16:05;;;;;;;1.83;0.93;;;12.70;99.90;;;;;;4767512;30;20632;-83
2020/12/04 12:18:38;;;;;;;3.42;1.63;;;12.60;99.90;;;;;;4773999;30;20390;-74
2020/12/04 12:21:17;;;;;;;;;;;12.50;99.90;;;;;;4779770;30;20039;-74
2020/12/04 12:23:44;;;;;;;2.20;1.60;;;12.50;99.90;;;;;;4767826;30;20415;-74
2020/12/04 12:26:11;;;;;;;3.20;1.65;;;12.40;99.90;;;;;;4775814;29;20086;-74
2020/12/04 12:28:40;;;;;;;1.90;1.48;;;12.30;99.90;;;;;;4771251;30;20035;-74
2020/12/04 12:31:06;;;;;;;1.67;1.25;;;12.20;99.90;;;;;;4773777;30;20787;-74
2020/12/04 12:33:33;;;;;;;1.92;1.25;;;12.10;99.90;;;;;;4779197;30;20092;-74
2020/12/04 12:35:59;;;;;;;2.28;1.38;;;12.00;99.90;;;;;;4783731;29;20036;-75
2020/12/04 12:38:25;;;;;;;2.00;1.30;;;12.10;99.90;;;;;;4768014;30;20495;-75
2020/12/04 12:40:51;;;;;;;1.33;1.10;;;12.10;99.90;;;;;;4766828;30;20028;-75
2020/12/04 12:43:18;;;;;;;2.08;1.20;;;12.10;99.90;;;;;;4778298;30;20039;-75
2020/12/04 12:45:44;;;;;;;1.92;1.52;;;12.00;99.90;;;;;;4783298;30;20479;-75
2020/12/04 12:48:10;;;;;;;3.72;1.80;;;12.00;99.90;;;;;;4784541;29;20059;-75
2020/12/04 12:50:36;;;;;;;5.35;2.78;;;12.00;99.90;;;;;;4784540;29;20039;-73
2020/12/04 12:53:02;;;;;;;4.60;1.90;;;11.80;99.90;;;;;;4785028;30;20035;-73
2020/12/04 12:55:29;;;;;;;2.72;1.63;;;11.80;99.90;;;;;;4767950;30;20467;-76
2020/12/04 12:57:55;;;;;;;1.10;1.00;;;11.70;99.90;;;;;;4766277;30;20036;-76
2020/12/04 13:00:21;;;;;;;2.38;1.88;;;11.70;99.90;;;;;;4765676;30;20028;-77
2020/12/04 13:02:47;;;;;;;1.70;1.25;;;11.70;99.90;;;;;;4777780;30;20038;-76
2020/12/04 13:08:02;;;;;;;3.10;1.75;;;11.70;99.90;;;;;;4762608;30;20031;-76
2020/12/04 13:10:30;;;;;;;1.77;1.27;;;11.70;99.90;;;;;;4780181;29;20043;-75
2020/12/04 13:12:56;;;;;;;2.30;1.42;;;11.80;99.90;;;;;;4766189;30;20525;-76
2020/12/04 13:15:22;;;;;;;2.97;1.70;;;11.90;99.90;;;;;;4766505;30;20043;-76
2020/12/04 13:17:49;;;;;;;3.15;2.08;;;11.90;99.90;;;;;;4768589;30;20036;-76
2020/12/04 13:20:15;;;;;;;5.18;2.88;;;12.00;99.90;;;;;;4784429;30;20068;-76
2020/12/04 13:22:42;;;;;;;2.92;2.30;;;12.00;99.90;;;;;;4784022;29;20445;-76
2020/12/04 13:25:08;;;;;;;4.57;2.58;;;12.00;99.90;;;;;;4784159;29;20102;-76
2020/12/04 13:27:35;;;;;;;5.55;3.15;;;12.00;99.90;;;;;;4781016;30;20576;-76
2020/12/04 13:30:04;;;;;;;4.78;2.10;;;12.00;99.90;;;;;;4766285;30;20051;-76
2020/12/04 13:32:30;;;;;;;4.78;3.10;;;11.80;99.90;;;;;;4766156;30;20077;-75
2020/12/04 13:34:56;;;;;;;4.10;2.40;;;12.10;99.90;;;;;;4766305;30;20028;-74
2020/12/04 13:37:22;;;;;;;3.20;2.13;;;12.10;99.90;;;;;;4765913;30;20028;-74
2020/12/04 13:39:48;;;;;;;6.32;3.08;;;12.00;99.90;;;;;;4766077;30;20032;-74
2020/12/04 13:42:14;;;;;;;4.90;2.83;;;12.00;99.90;;;;;;4765935;30;20050;-74
2020/12/04 13:44:40;;;;;;;6.03;3.50;;;12.10;99.90;;;;;;4765945;30;20380;-74
2020/12/04 13:47:06;;;;;;;5.60;3.40;;;11.90;99.90;;;;;;4764757;30;20047;-74
2020/12/04 13:49:33;;;;;;;3.40;2.60;;;11.90;99.90;;;;;;4759190;30;20035;-74
2020/12/04 13:51:59;;;;;;;4.35;2.60;;;11.90;99.90;;;;;;4765547;30;20101;-78
2020/12/04 13:54:25;;;;;;;4.60;2.88;;;11.90;99.90;;;;;;4765078;30;20281;-74
2020/12/04 13:56:51;;;;;;;16.58;10.23;;;11.80;99.90;;;;;;4767809;30;20067;-74
2020/12/04 13:59:17;;;;;;;20.60;11.90;;;11.80;99.90;;;;;;4783464;30;20027;-74
2020/12/04 14:01:43;;;;;;;7.25;4.82;;;11.90;99.90;;;;;;4775392;30;20084;-74
2020/12/04 14:04:10;;;;;;;4.50;2.95;;;11.90;99.90;;;;;;4765863;30;20056;-75
2020/12/04 14:06:36;;;;;;;3.67;2.83;;;11.90;99.90;;;;;;4765602;30;20039;-74
2020/12/04 14:09:04;;;;;;;4.95;3.25;;;11.90;99.90;;;;;;4765473;30;20032;-74
2020/12/04 14:11:31;;;;;;;7.00;4.10;;;11.80;99.90;;;;;;4764217;30;20070;-74
2020/12/04 14:13:57;;;;;;;6.50;4.10;;;11.90;99.90;;;;;;4774089;30;20036;-74
2020/12/04 14:16:23;;;;;;;6.65;5.20;;;11.90;99.90;;;;;;4783142;30;20027;-75
2020/12/04 14:18:49;;;;;;;4.57;3.30;;;12.10;99.90;;;;;;4777898;30;20039;-75
2020/12/04 14:21:15;;;;;;;4.97;3.40;;;12.10;99.90;;;;;;4765617;30;20043;-74
2020/12/04 14:23:42;;;;;;;4.47;3.00;;;12.10;99.90;;;;;;4765886;30;20395;-74
2020/12/04 14:26:09;;;;;;;4.90;2.78;;;12.00;99.90;;;;;;4765461;30;20479;-74
2020/12/04 14:28:35;;;;;;;5.47;2.95;;;12.10;99.90;;;;;;4766195;30;20039;-74
2020/12/04 14:31:01;;;;;;;4.05;2.30;;;12.10;99.90;;;;;;4772058;30;20082;-74
2020/12/04 14:33:28;;;;;;;3.97;1.98;;;12.20;99.90;;;;;;4777815;30;20039;-74
2020/12/04 14:35:54;;;;;;;3.20;2.40;;;12.30;99.90;;;;;;4772351;30;20036;-74
2020/12/04 14:41:11;;;;;;;3.63;2.20;;;12.30;99.90;;;;;;4765741;30;20036;-74
2020/12/04 14:43:39;;;;;;;2.22;1.60;;;12.40;99.90;;;;;;4765340;30;20506;-74
2020/12/04 14:46:09;;;;;;;1.83;1.02;;;12.20;99.90;;;;;;4765390;30;20040;-74
2020/12/04 14:48:36;;;;;;;4.63;3.25;;;12.30;99.90;;;;;;4772381;30;20039;-74
2020/12/04 14:51:04;;;;;;;4.38;1.65;;;12.60;99.90;;;;;;4778643;29;20088;-74
2020/12/04 14:53:30;;;;;;;0.63;0.47;;;12.80;99.90;;;;;;4763840;30;20028;-74
2020/12/04 14:55:57;;;;;;;1.13;0.60;;;13.20;99.90;;;;;;4763102;30;20509;-74
2020/12/04 14:58:23;;;;;;;1.42;0.95;;;13.50;99.90;;;;;;4762688;30;20032;-74
2020/12/04 15:00:49;;;;;;;1.40;0.68;;;13.70;99.90;;;;;;4762934;30;20165;-74
2020/12/04 15:03:15;;;;;;;0.77;0.55;;;14.00;99.90;;;;;;4765744;30;20071;-74
2020/12/04 15:05:41;;;;;;;1.88;0.73;;;14.10;99.90;;;;;;4764318;30;20039;-73
2020/12/04 15:08:10;;;;;;;1.25;1.15;;;14.20;99.90;;;;;;4765068;30;20383;-74
2020/12/04 15:10:37;;;;;;;0.88;0.60;;;14.20;99.90;;;;;;4757920;30;20027;-77
2020/12/04 15:13:03;;;;;;;3.05;0.90;;;14.20;99.90;;;;;;4757032;30;20051;-74
2020/12/04 15:15:29;;;;;;;2.88;1.60;;;14.10;99.90;;;;;;4753474;30;20502;-74
2020/12/04 15:17:55;;;;;;;1.45;1.00;;;14.00;99.90;;;;;;4751892;30;20032;-74
2020/12/04 15:20:21;;;;;;;1.42;1.33;;;13.90;99.90;;;;;;4755963;30;20039;-73
2020/12/04 15:22:47;;;;;;;2.58;1.80;;;13.80;99.90;;;;;;4756523;30;20103;-74
2020/12/04 15:25:13;;;;;;;1.45;1.20;;;13.70;99.90;;;;;;4757992;30;20053;-74
2020/12/04 15:27:39;;;;;;;1.80;1.25;;;13.60;99.90;;;;;;4767011;30;20568;-74
2020/12/04 15:30:06;;;;;;;1.67;1.50;;;13.40;99.90;;;;;;4766359;30;20032;-75
2020/12/04 15:32:32;;;;;;;3.85;1.65;;;13.30;99.90;;;;;;4779948;30;20539;-74
2020/12/04 15:34:58;;;;;;;1.30;0.85;;;13.20;99.90;;;;;;4768353;30;20580;-74
2020/12/04 15:37:24;;;;;;;1.60;1.20;;;13.10;99.90;;;;;;4766364;30;20108;-74
2020/12/04 15:39:50;;;;;;;2.65;1.63;;;13.00;99.90;;;;;;4766450;30;20054;-76
2020/12/04 15:42:18;;;;;;;3.78;2.38;;;12.90;99.90;;;;;;4766335;30;20031;-76
2020/12/04 15:44:45;;;;;;;5.13;2.33;;;12.90;99.90;;;;;;4765046;30;20151;-75
2020/12/04 15:47:11;;;;;;;2.97;1.73;;;12.80;99.90;;;;;;4767904;30;20056;-74
2020/12/04 15:49:37;;;;;;;3.58;2.67;;;12.70;99.90;;;;;;4767027;30;20031;-74
2020/12/04 15:52:04;;;;;;;3.13;2.72;;;12.70;99.90;;;;;;4765881;30;20043;-74
2020/12/04 15:54:30;;;;;;;2.08;1.75;;;12.60;99.90;;;;;;4766637;30;20111;-73
2020/12/04 15:56:57;;;;;;;2.88;1.88;;;12.60;99.90;;;;;;4767697;30;20032;-76
2020/12/04 15:59:23;;;;;;;3.45;2.25;;;12.50;99.90;;;;;;4766179;30;20407;-73
2020/12/04 16:01:57;;;;;;;4.45;2.05;;;12.50;99.90;;;;;;4766737;30;20039;-73
2020/12/04 16:04:24;;;;;;;4.15;2.30;;;12.50;99.90;;;;;;4765549;30;20050;-73
2020/12/04 16:06:52;;;;;;;3.28;2.20;;;12.40;99.90;;;;;;4766684;30;20088;-73
2020/12/04 16:09:18;;;;;;;5.32;2.05;;;12.40;99.90;;;;;;4766787;30;20036;-74
2020/12/04 16:11:47;;;;;;;4.20;2.50;;;12.30;99.90;;;;;;4766886;30;20044;-74
2020/12/04 16:14:14;;;;;;;2.92;1.73;;;12.30;99.90;;;;;;4765581;30;20114;-74
2020/12/04 16:16:45;;;;;;;2.58;1.80;;;12.20;99.90;;;;;;4765828;30;20064;-74
2020/12/04 16:19:12;;;;;;;3.55;2.30;;;12.20;99.90;;;;;;4767127;30;20475;-73
2020/12/04 16:21:43;;;;;;;2.60;1.70;;;12.10;99.90;;;;;;4765751;30;20048;-73
2020/12/04 16:24:09;;;;;;;3.75;2.10;;;12.20;99.90;;;;;;4766271;30;20047;-73
2020/12/04 16:26:39;;;;;;;5.80;1.60;;;12.10;99.90;;;;;;4765441;30;20024;-73
2020/12/04 16:29:05;;;;;;;4.00;2.00;;;12.10;99.90;;;;;;4766117;30;20074;-73
2020/12/04 16:31:33;;;;;;;2.47;1.65;;;12.10;99.90;;;;;;4766523;30;20047;-77
2020/12/04 16:34:00;;;;;;;4.32;1.83;;;12.10;99.90;;;;;;4767012;30;20114;-76
2020/12/04 16:36:26;;;;;;;4.45;2.42;;;12.10;99.90;;;;;;4764347;30;20044;-73
2020/12/04 16:38:58;;;;;;;2.90;1.50;;;12.10;99.90;;;;;;4766748;30;20111;-74
2020/12/04 16:41:28;;;;;;;3.70;2.65;;;12.10;99.90;;;;;;4767120;30;20402;-73
2020/12/04 16:43:55;;;;;;;4.22;2.60;;;12.10;99.90;;;;;;4766123;30;20031;-73
2020/12/04 16:46:21;;;;;;;5.35;3.35;;;12.00;99.90;;;;;;4766619;30;20044;-74
2020/12/04 16:48:48;;;;;;;6.85;3.80;;;12.00;99.90;;;;;;4762903;30;20039;-73
2020/12/04 16:51:15;;;;;;;9.98;4.55;;;12.00;99.90;;;;;;4764804;30;20483;-73
2020/12/04 16:53:42;;;;;;;6.15;3.83;;;12.00;99.90;;;;;;4777944;30;20371;-73
2020/12/04 16:56:10;;;;;;;7.70;5.00;;;12.00;99.90;;;;;;4781633;30;20088;-73
2020/12/04 16:58:37;;;;;;;8.00;4.90;;;12.00;99.90;;;;;;4766517;30;20042;-73
2020/12/04 17:01:07;;;;;;;14.60;5.78;;;12.00;99.90;;;;;;4764590;30;20150;-72
2020/12/04 17:03:33;;;;;;;8.13;5.07;;;12.00;99.90;;;;;;4765770;30;20575;-73
2020/12/04 17:06:01;;;;;;;8.82;5.28;;;11.90;99.90;;;;;;4765886;30;20055;-73
2020/12/04 17:08:28;;;;;;;8.63;5.03;;;11.90;99.90;;;;;;4765078;30;20047;-74
2020/12/04 17:10:54;;;;;;;6.47;4.90;;;11.90;99.90;;;;;;4766451;30;20151;-78
2020/12/04 17:13:21;;;;;;;8.20;4.88;;;11.90;99.90;;;;;;4765520;30;20028;-73
2020/12/04 17:15:47;;;;;;;7.38;4.53;;;11.90;99.90;;;;;;4766094;30;20036;-73
2020/12/04 17:18:14;;;;;;;9.55;5.07;;;11.90;99.90;;;;;;4765160;30;20047;-74
2020/12/04 17:20:42;;;;;;;7.38;5.18;;;11.90;99.90;;;;;;4766011;30;20032;-74
2020/12/04 17:23:08;;;;;;;7.70;5.05;;;11.90;99.90;;;;;;4764552;30;20032;-76
2020/12/04 17:25:36;;;;;;;7.65;5.60;;;11.80;99.90;;;;;;4764884;30;20035;-73
2020/12/04 17:28:02;;;;;;;8.10;5.50;;;11.80;99.90;;;;;;4765431;30;20503;-73
2020/12/04 17:30:28;;;;;;;7.43;4.45;;;11.80;99.90;;;;;;4764751;30;20040;-73
2020/12/04 17:32:56;;;;;;;7.53;4.85;;;11.70;99.90;;;;;;4765221;30;20074;-81
2020/12/04 17:35:23;;;;;;;8.38;4.95;;;11.80;99.90;;;;;;4765078;30;20038;-80
2020/12/04 17:37:49;;;;;;;6.38;4.22;;;11.80;99.90;;;;;;4764942;30;20032;-73
2020/12/04 17:40:15;;;;;;;8.35;4.55;;;11.80;99.90;;;;;;4765241;30;20032;-73
2020/12/04 17:42:43;;;;;;;10.70;4.15;;;11.80;99.90;;;;;;4764355;30;20031;-74
2020/12/04 17:45:09;;;;;;;4.95;3.97;;;11.90;99.90;;;;;;4765027;30;20038;-74
2020/12/04 17:47:36;;;;;;;6.95;3.70;;;11.80;99.90;;;;;;4764649;30;20846;-73
2020/12/04 17:50:11;;;;;;;9.63;3.83;;;11.80;99.90;;;;;;4765172;30;20442;-74
2020/12/04 17:52:38;;;;;;;7.28;3.70;;;11.80;99.90;;;;;;4764348;30;20530;-74
2020/12/04 17:55:11;;;;;;;6.25;3.97;;;11.80;99.90;;;;;;4763431;30;20038;-73
2020/12/04 17:57:38;;;;;;;7.35;4.20;;;11.80;99.90;;;;;;4766123;30;20066;-75
2020/12/04 18:00:06;;;;;;;5.50;4.10;;;11.90;99.90;;;;;;4764653;30;20453;-79
2020/12/04 18:02:32;;;;;;;10.35;5.65;;;11.90;99.90;;;;;;4775812;30;20027;-73
2020/12/04 18:04:59;;;;;;;7.57;4.90;;;11.80;99.90;;;;;;4783273;29;20429;-73
2020/12/04 18:07:25;;;;;;;10.35;5.53;;;11.90;99.90;;;;;;4765952;30;20043;-74
2020/12/04 18:09:51;;;;;;;12.88;7.50;;;11.90;99.90;;;;;;4765056;30;20044;-73
2020/12/04 18:12:18;;;;;;;12.77;7.82;;;11.90;99.90;;;;;;4764525;30;20051;-74
2020/12/04 18:14:44;;;;;;;15.90;7.90;;;11.90;99.90;;;;;;4764567;30;20039;-73
2020/12/04 18:17:11;;;;;;;12.48;8.40;;;12.00;99.90;;;;;;4764040;30;20264;-73
2020/12/04 18:19:37;;;;;;;16.17;8.50;;;11.90;99.90;;;;;;4764591;30;20032;-73
2020/12/04 18:22:05;;;;;;;18.45;9.27;;;11.90;99.90;;;;;;4764518;30;20040;-74
2020/12/04 18:24:31;;;;;;;13.20;7.97;;;11.90;99.90;;;;;;4765286;30;20043;-73
2020/12/04 18:27:00;;;;;;;11.43;8.30;;;11.90;99.90;;;;;;4764470;30;20493;-73
2020/12/04 18:29:26;;;;;;;17.92;9.65;;;11.80;99.90;;;;;;4765775;30;20059;-73
2020/12/04 18:31:52;;;;;;;17.88;9.73;;;11.80;99.90;;;;;;4763537;30;20047;-74
2020/12/04 18:34:20;;;;;;;13.77;8.80;;;11.80;99.90;;;;;;4777612;29;20038;-73
2020/12/04 18:36:50;;;;;;;19.88;12.00;;;11.80;99.90;;;;;;4767332;30;20101;-74
2020/12/04 18:39:18;;;;;;;15.23;10.02;;;11.80;99.90;;;;;;4768146;30;20448;-74
2020/12/04 18:41:45;;;;;;;14.52;9.10;;;11.80;99.90;;;;;;4768937;30;20387;-73
2020/12/04 18:44:12;;;;;;;12.07;8.95;;;11.80;99.90;;;;;;4768258;30;20046;-73
2020/12/04 18:46:40;;;;;;;13.27;8.60;;;11.90;99.90;;;;;;4767647;30;20060;-73
2020/12/04 18:49:08;;;;;;;16.80;9.68;;;11.90;99.90;;;;;;4767504;30;20063;-73
2020/12/04 18:51:40;;;;;;;16.15;9.52;;;11.90;99.90;;;;;;4767140;30;20105;-73
2020/12/04 18:54:06;;;;;;;18.33;9.95;;;11.90;99.90;;;;;;4757172;30;20028;-74
2020/12/04 18:56:32;;;;;;;19.67;10.20;;;11.80;99.90;;;;;;4767898;30;20513;-73
2020/12/04 18:58:59;;;;;;;18.60;11.05;;;11.80;99.90;;;;;;4768706;30;20024;-74
2020/12/04 19:01:25;;;;;;;15.57;9.55;;;11.80;99.90;;;;;;4765257;30;20038;-73
2020/12/04 19:03:52;;;;;;;16.48;10.43;;;11.80;99.90;;;;;;4766246;30;20400;-73
2020/12/04 19:06:18;;;;;;;18.05;10.63;;;11.80;99.90;;;;;;4765330;30;20112;-73
2020/12/04 19:08:44;;;;;;;14.00;9.65;;;11.80;99.90;;;;;;4767415;30;20437;-74
2020/12/04 19:11:13;;;;;;;15.15;11.10;;;11.80;99.90;;;;;;4768580;30;20307;-73
2020/12/04 19:13:39;;;;;;;18.17;10.85;;;11.80;99.90;;;;;;4765540;30;20036;-74
2020/12/04 19:16:05;;;;;;;16.50;11.48;;;11.80;99.90;;;;;;4764949;30;20044;-82
2020/12/04 19:18:32;;;;;;;17.65;11.85;;;11.80;99.90;;;;;;4765372;30;20048;-82
2020/12/04 19:20:58;;;;;;;20.35;12.52;;;11.70;99.90;;;;;;4767542;30;20560;-83
2020/12/04 19:23:24;;;;;;;22.83;13.85;;;11.70;99.90;;;;;;4751902;30;20032;-83
2020/12/04 19:25:50;;;;;;;25.73;13.23;;;11.70;99.90;;;;;;4749326;30;20036;-83
2020/12/04 19:28:17;;;;;;;20.95;12.85;;;11.70;99.90;;;;;;4765329;30;20483;-82
2020/12/04 19:30:43;;;;;;;21.75;12.13;;;11.70;99.90;;;;;;4750927;30;20024;-84
2020/12/04 19:33:11;;;;;;;19.50;11.88;;;11.60;99.90;;;;;;4782587;30;20040;-83
2020/12/04 19:35:37;;;;;;;22.13;12.32;;;11.50;99.90;;;;;;4752524;30;20157;-83
2020/12/04 19:38:04;;;;;;;19.75;11.15;;;11.50;99.90;;;;;;4767871;30;20546;-83
2020/12/04 19:40:30;;;;;;;21.33;11.55;;;11.50;99.90;;;;;;4765999;30;20445;-88
2020/12/04 19:42:57;;;;;;;21.23;10.85;;;11.50;99.90;;;;;;4752558;30;20101;-83
2020/12/04 19:45:24;;;;;;;21.38;10.68;;;11.50;99.90;;;;;;4752464;30;20119;-84
2020/12/04 19:47:50;;;;;;;15.25;9.30;;;11.60;99.90;;;;;;4765224;30;20553;-83
2020/12/04 19:50:17;;;;;;;15.32;9.90;;;11.60;99.90;;;;;;4762993;30;20039;-84
2020/12/04 19:52:45;;;;;;;16.45;9.63;;;11.60;99.90;;;;;;4767928;30;20056;-87
2020/12/04 19:55:13;;;;;;;17.98;10.95;;;11.60;99.90;;;;;;4766793;30;20031;-86
2020/12/04 19:57:39;;;;;;;19.88;11.70;;;11.60;99.90;;;;;;4766980;30;20063;-83
2020/12/04 20:00:11;;;;;;;16.88;10.73;;;11.60;99.90;;;;;;4767049;30;20036;-84
2020/12/04 20:02:40;;;;;;;23.60;12.27;;;11.60;99.90;;;;;;4765846;30;20032;-83
2020/12/04 20:05:08;;;;;;;20.02;12.52;;;11.60;99.90;;;;;;4766493;29;20067;-83
2020/12/04 20:07:35;;;;;;;20.88;12.25;;;11.60;99.90;;;;;;4767523;30;20032;-83
2020/12/04 20:10:03;;;;;;;19.15;13.38;;;11.60;99.90;;;;;;4751900;30;20036;-84
2020/12/04 20:12:31;;;;;;;25.30;13.75;;;11.60;99.90;;;;;;4767551;30;20050;-83
2020/12/04 20:15:02;;;;;;;19.40;12.27;;;11.60;99.90;;;;;;4766149;30;20538;-84
2020/12/04 20:17:30;;;;;;;27.35;12.82;;;11.60;99.90;;;;;;4767576;30;20040;-83
2020/12/04 20:19:57;;;;;;;20.50;12.23;;;11.60;99.90;;;;;;4764603;30;20038;-88
2020/12/04 20:22:23;;;;;;;20.95;12.15;;;11.60;99.90;;;;;;4763985;30;20050;-83
2020/12/04 20:24:49;;;;;;;19.13;11.50;;;11.60;99.90;;;;;;4765488;30;20093;-83
2020/12/04 20:27:16;;;;;;;19.67;12.25;;;11.60;99.90;;;;;;4766103;30;20492;-82
2020/12/04 20:29:42;;;;;;;25.10;12.88;;;11.60;99.90;;;;;;4766613;30;20097;-84
2020/12/04 20:32:08;;;;;;;16.95;11.52;;;11.60;99.90;;;;;;4765251;30;20515;-87
2020/12/04 20:34:34;;;;;;;21.45;10.90;;;11.60;99.90;;;;;;4766702;30;20031;-81
2020/12/04 20:37:02;;;;;;;18.55;11.10;;;11.50;99.90;;;;;;4764865;30;20069;-84
2020/12/04 20:39:31;;;;;;;19.80;10.98;;;11.60;99.90;;;;;;4767879;30;20036;-85
2020/12/04 20:41:57;;;;;;;21.98;10.88;;;11.60;99.90;;;;;;4764353;30;20603;-87
2020/12/04 20:44:23;;;;;;;17.42;10.13;;;11.50;99.90;;;;;;4749900;30;20379;-84
2020/12/04 20:46:53;;;;;;;17.35;9.18;;;11.60;99.90;;;;;;4761175;30;20056;-84
2020/12/04 20:49:25;;;;;;;14.85;8.80;;;11.60;99.90;;;;;;4765950;30;20800;-84
2020/12/04 20:51:53;;;;;;;18.45;8.85;;;11.60;99.90;;;;;;4767195;30;20064;-84
2020/12/04 20:54:19;;;;;;;13.73;7.97;;;11.70;99.90;;;;;;4764694;30;21229;-84